createdAt,value
2023-05-14T00:00:42.052Z,68.90
2023-05-14T00:06:06.773Z,68.90
2023-05-14T00:11:14.248Z,69.18
2023-05-14T00:16:21.629Z,69.00
2023-05-14T00:21:28.952Z,69.37
2023-05-14T00:26:36.461Z,69.26
2023-05-14T00:31:47.055Z,69.45
2023-05-14T00:36:55.311Z,69.76
2023-05-14T00:42:04.051Z,69.92
2023-05-14T00:47:11.976Z,69.96
2023-05-14T00:52:20.486Z,69.78
2023-05-14T00:57:28.106Z,70.08
2023-05-14T01:02:35.535Z,70.14
2023-05-14T01:07:56.873Z,70.21
2023-05-14T01:13:10.973Z,70.10
2023-05-14T01:18:21.138Z,70.54
2023-05-14T01:23:28.908Z,70.78
2023-05-14T01:28:37.912Z,70.66
2023-05-14T01:33:46.617Z,71.05
2023-05-14T01:38:55.520Z,71.09
2023-05-14T01:44:03.087Z,71.11
2023-05-14T01:49:10.437Z,71.78
2023-05-14T01:54:19.355Z,72.07
2023-05-14T01:59:26.744Z,72.36
2023-05-14T02:04:34.108Z,72.54
2023-05-14T02:09:41.667Z,72.50
2023-05-14T02:14:49.275Z,72.62
2023-05-14T02:19:56.948Z,73.03
2023-05-14T02:25:05.217Z,73.49
2023-05-14T02:30:15.330Z,73.63
2023-05-14T02:35:23.510Z,73.73
2023-05-14T02:40:31.180Z,73.47
2023-05-14T02:45:38.984Z,73.16
2023-05-14T02:50:47.071Z,73.39
2023-05-14T02:55:54.302Z,73.98
2023-05-14T03:01:01.901Z,74.24
2023-05-14T03:06:10.651Z,74.22
2023-05-14T03:11:18.505Z,74.26
2023-05-14T03:16:25.973Z,74.26
2023-05-14T03:21:33.293Z,74.39
2023-05-14T03:26:41.415Z,74.37
2023-05-14T03:31:50.337Z,74.26
2023-05-14T03:36:57.884Z,74.45
2023-05-14T03:42:05.955Z,74.95
2023-05-14T03:47:13.111Z,74.54
2023-05-14T03:52:18.863Z,74.82
2023-05-14T03:57:26.447Z,74.55
2023-05-14T04:02:34.052Z,74.47
2023-05-14T04:07:43.362Z,74.24
2023-05-14T04:12:50.803Z,74.17
2023-05-14T04:17:58.095Z,74.13
2023-05-14T04:23:05.773Z,73.93
2023-05-14T04:28:13.050Z,74.31
2023-05-14T04:33:20.679Z,74.72
2023-05-14T04:38:28.779Z,74.84
2023-05-14T04:43:36.252Z,74.52
2023-05-14T04:48:43.956Z,74.65
2023-05-14T04:53:51.745Z,74.39
2023-05-14T04:58:58.820Z,74.53
2023-05-14T05:04:06.442Z,74.35
2023-05-14T05:09:13.858Z,74.33
2023-05-14T05:14:21.287Z,73.74
2023-05-14T05:19:39.650Z,73.65
2023-05-14T05:24:50.267Z,73.48
2023-05-14T05:29:57.844Z,73.21
2023-05-14T05:35:05.918Z,72.65
2023-05-14T05:40:16.351Z,72.33
2023-05-14T05:45:23.637Z,71.47
2023-05-14T05:50:31.846Z,71.28
2023-05-14T05:55:39.581Z,71.07
2023-05-14T06:00:47.832Z,71.06
2023-05-14T06:05:55.214Z,69.90
2023-05-14T06:11:02.523Z,69.90
2023-05-14T06:16:10.342Z,68.85
2023-05-14T06:21:17.645Z,68.38
2023-05-14T06:26:25.096Z,68.02
2023-05-14T06:31:32.397Z,67.46
2023-05-14T06:36:39.790Z,67.33
2023-05-14T06:41:47.099Z,66.87
2023-05-14T06:52:45.406Z,66.00
2023-05-14T06:57:53.188Z,65.76
2023-05-14T07:03:00.561Z,65.63
2023-05-14T07:08:08.693Z,65.25
2023-05-14T07:13:18.121Z,65.44
2023-05-14T07:18:25.832Z,64.72
2023-05-14T07:23:33.238Z,64.38
2023-05-14T07:28:40.756Z,64.26
2023-05-14T07:33:48.022Z,64.24
2023-05-14T07:38:55.595Z,63.96
2023-05-14T07:44:05.400Z,62.78
2023-05-14T07:49:12.651Z,62.47
2023-05-14T07:54:20.040Z,61.11
2023-05-14T07:59:28.087Z,60.51
2023-05-14T08:04:36.631Z,59.72
2023-05-14T08:09:44.651Z,60.48
2023-05-14T08:14:52.046Z,60.52
2023-05-14T08:19:59.651Z,58.74
2023-05-14T08:25:08.381Z,58.24
2023-05-14T08:30:18.071Z,57.09
2023-05-14T08:35:25.475Z,56.56
2023-05-14T08:40:33.340Z,56.90
2023-05-14T08:45:41.834Z,56.75
2023-05-14T08:50:50.448Z,56.88
2023-05-14T08:55:57.950Z,56.58
2023-05-14T09:01:06.009Z,55.52
2023-05-14T09:06:14.487Z,55.38
2023-05-14T09:11:21.910Z,54.88
2023-05-14T09:16:30.038Z,54.41
2023-05-14T09:21:37.972Z,54.25
2023-05-14T09:26:45.753Z,53.94
2023-05-14T09:31:55.608Z,53.07
2023-05-14T09:37:04.662Z,52.31
2023-05-14T09:42:13.874Z,51.07
2023-05-14T09:47:21.769Z,52.13
2023-05-14T09:52:29.533Z,52.47
2023-05-14T09:57:37.594Z,50.67
2023-05-14T10:02:47.300Z,51.29
2023-05-14T10:07:58.733Z,51.99
2023-05-14T10:13:11.228Z,51.58
2023-05-14T10:18:21.666Z,52.30
2023-05-14T10:23:29.600Z,51.91
2023-05-14T10:28:37.818Z,51.74
2023-05-14T10:33:52.395Z,52.38
2023-05-14T10:38:59.637Z,51.92
2023-05-14T10:44:12.684Z,51.28
2023-05-14T10:53:52.347Z,51.42
2023-05-14T10:59:01.555Z,50.61
2023-05-14T11:04:09.498Z,50.34
2023-05-14T11:09:18.869Z,50.78
2023-05-14T11:14:26.236Z,50.57
2023-05-14T11:19:33.745Z,49.79
2023-05-14T11:24:41.952Z,49.63
2023-05-14T11:29:51.926Z,49.70
2023-05-14T11:34:59.847Z,49.56
2023-05-14T11:40:16.563Z,50.12
2023-05-14T11:45:30.150Z,49.87
2023-05-14T11:50:40.914Z,48.90
2023-05-14T11:55:49.423Z,48.36
2023-05-14T12:00:58.622Z,48.76
2023-05-14T12:06:10.709Z,48.14
2023-05-14T12:11:22.812Z,47.86
2023-05-14T12:16:36.239Z,47.94
2023-05-14T12:21:47.093Z,47.11
2023-05-14T12:26:55.754Z,47.51
2023-05-14T12:32:04.906Z,47.53
2023-05-14T12:37:12.186Z,47.03
2023-05-14T12:42:19.797Z,46.62
2023-05-14T12:47:27.529Z,45.91
2023-05-14T12:57:45.850Z,46.01
2023-05-14T13:02:53.428Z,45.75
2023-05-14T13:08:04.013Z,46.11
2023-05-14T13:13:11.744Z,46.09
2023-05-14T13:18:19.948Z,45.65
2023-05-14T13:23:27.734Z,45.76
2023-05-14T13:28:35.304Z,45.15
2023-05-14T13:33:45.794Z,45.13
2023-05-14T13:38:53.407Z,44.89
2023-05-14T13:44:01.030Z,44.60
2023-05-14T13:56:13.903Z,44.17
2023-05-14T14:01:24.217Z,43.81
2023-05-14T14:06:34.142Z,43.77
2023-05-14T14:11:41.899Z,43.45
2023-05-14T14:16:49.377Z,43.24
2023-05-14T14:21:59.841Z,43.98
2023-05-14T14:27:09.331Z,43.86
2023-05-14T14:32:16.693Z,43.90
2023-05-14T14:37:24.035Z,43.97
2023-05-14T14:42:31.695Z,44.67
2023-05-14T14:47:39.168Z,45.37
2023-05-14T14:52:48.266Z,45.25
2023-05-14T14:57:55.492Z,45.74
2023-05-14T15:03:03.536Z,46.12
2023-05-14T15:08:11.318Z,45.62
2023-05-14T15:13:20.873Z,45.59
2023-05-14T15:18:28.539Z,45.95
2023-05-14T15:23:36.688Z,46.24
2023-05-14T15:28:44.099Z,46.42
2023-05-14T15:33:52.594Z,46.58
2023-05-14T15:39:00.667Z,46.84
2023-05-14T15:44:08.589Z,46.85
2023-05-14T15:49:15.888Z,47.01
2023-05-14T15:54:23.797Z,47.26
2023-05-14T15:59:31.332Z,47.37
2023-05-14T16:04:39.222Z,47.83
2023-05-14T16:09:46.508Z,48.09
2023-05-14T16:14:57.331Z,48.37
2023-05-14T16:20:06.063Z,48.60
2023-05-14T16:25:13.627Z,48.88
2023-05-14T16:30:21.646Z,49.10
2023-05-14T16:35:32.363Z,49.11
2023-05-14T16:40:42.166Z,49.20
2023-05-14T16:45:49.758Z,49.28
2023-05-14T16:50:57.942Z,49.36
2023-05-14T16:56:06.896Z,49.61
2023-05-14T17:01:15.251Z,49.60
2023-05-14T17:06:22.845Z,49.68
2023-05-14T17:11:31.331Z,49.93
2023-05-14T17:16:42.574Z,49.95
2023-05-14T17:21:49.245Z,50.43
2023-05-14T17:26:56.884Z,50.75
2023-05-14T17:32:05.217Z,51.15
2023-05-14T17:37:13.857Z,51.51
2023-05-14T17:42:21.181Z,52.02
2023-05-14T17:47:29.116Z,52.85
2023-05-14T17:52:37.989Z,53.88
2023-05-14T17:57:45.973Z,56.91
2023-05-14T18:02:53.579Z,58.95
2023-05-14T18:08:01.180Z,61.98
2023-05-14T18:13:10.468Z,62.78
2023-05-14T18:18:18.896Z,64.70
2023-05-14T18:23:26.283Z,65.41
2023-05-14T18:28:33.841Z,66.25
2023-05-14T18:33:41.180Z,68.96
2023-05-14T18:38:49.617Z,70.17
2023-05-14T18:43:58.183Z,71.19
2023-05-14T18:54:26.222Z,70.03
2023-05-14T18:59:34.106Z,74.51
2023-05-14T19:04:51.750Z,75.70
2023-05-14T19:10:00.021Z,75.98
2023-05-14T19:15:11.899Z,77.56
2023-05-14T19:20:19.512Z,76.43
2023-05-14T19:25:27.901Z,76.66
2023-05-14T19:30:35.966Z,78.21
2023-05-14T19:35:43.306Z,78.48
2023-05-14T19:40:51.473Z,80.15
2023-05-14T19:46:01.366Z,81.04
2023-05-14T19:52:55.242Z,82.82
2023-05-14T19:58:02.933Z,83.52
2023-05-14T20:03:10.686Z,83.85
2023-05-14T20:08:19.236Z,83.42
2023-05-14T20:13:26.746Z,82.93
2023-05-14T20:18:33.987Z,82.25
2023-05-14T20:23:41.438Z,82.24
2023-05-14T20:28:48.785Z,80.78
2023-05-14T20:33:55.984Z,80.65
2023-05-14T20:39:03.548Z,79.29
2023-05-14T20:44:11.078Z,78.78
2023-05-14T20:49:20.523Z,78.26
2023-05-14T20:54:29.097Z,78.49
2023-05-14T21:04:52.501Z,78.04
2023-05-14T21:10:02.244Z,77.88
2023-05-14T21:15:12.094Z,78.11
2023-05-14T21:20:19.918Z,78.39
2023-05-14T21:25:27.674Z,78.25
2023-05-14T21:30:35.570Z,78.53
2023-05-14T21:35:43.198Z,78.81
2023-05-14T21:40:52.336Z,78.89
2023-05-14T21:46:00.108Z,78.88
2023-05-14T21:51:08.270Z,79.10
2023-05-14T21:56:16.328Z,79.18
2023-05-14T22:01:23.873Z,79.31
2023-05-14T22:06:31.384Z,79.43
2023-05-14T22:11:39.129Z,79.52
2023-05-14T22:16:46.732Z,79.61
2023-05-14T22:21:54.677Z,79.50
2023-05-14T22:27:02.352Z,79.36
2023-05-14T22:32:10.837Z,79.30
2023-05-14T22:37:19.223Z,79.35
2023-05-14T22:42:27.531Z,79.38
2023-05-14T22:47:35.116Z,79.27
2023-05-14T22:52:43.074Z,79.20
2023-05-14T22:57:50.622Z,79.20
2023-05-14T23:02:58.151Z,79.18
2023-05-14T23:08:06.646Z,79.20
2023-05-14T23:13:14.368Z,79.52
2023-05-14T23:18:24.180Z,79.72
2023-05-14T23:23:32.053Z,80.36
2023-05-14T23:28:39.621Z,81.44
2023-05-14T23:33:47.266Z,82.74
2023-05-14T23:38:54.914Z,83.62
2023-05-14T23:44:02.345Z,83.94
2023-05-14T23:49:09.945Z,84.44
2023-05-14T23:54:17.810Z,84.73
2023-05-14T23:59:25.490Z,85.29
